Check out our new BloomSky Weather System.

Active alerts


No alerts


Thunder radar  blitzortung!


Rain radar more information rain snow radar


Visit our other weather sites:

Template documentation
and downloads

And another site



Weather Underground History page Text

Daily Summary for April 18, 2017 Units:  English    Metric   Both
« Previous Day
Next Day »
Daily Weekly Monthly Yearly Custom
  High: Low: Average:
Temperature: 78.4 °F 66.2 °F 70.2 °F
Dew Point: 70.7 °F 65.7 °F 67.6 °F
Humidity: 99 % 71 % 92 %
Wind Speed: 8.0 mph 0.0 mph 1.3 mph
Wind Gust: 12.0 mph - -
Wind:- - ESE
Pressure: 30.04 in 29.96 in -
Precipitation: 0.27 in    
Historical Graphs
 
 
Tabular Data for April 18, 2017
Time Temperature Dew Point Pressure Wind Wind Speed Wind Gust Humidity Rainfall Rate (Hourly)
00:00 66.9 °F 66.4 °F 29.99 in Calm   4.0 mph 98 % 0.01 in
00:05 66.9 °F 66.4 °F 29.99 in Calm   4.0 mph 98 % 0.01 in
00:10 66.9 °F 66.4 °F 29.99 in Calm   3.0 mph 98 % 0.01 in
00:15 66.9 °F 66.4 °F 29.99 in NE 2.0 mph 2.0 mph 98 % 0.01 in
00:20 66.7 °F 66.2 °F 29.99 in Calm   2.0 mph 98 % 0.01 in
00:25 66.7 °F 66.2 °F 29.99 in Calm   2.0 mph 98 % 0.01 in
00:30 66.7 °F 66.2 °F 29.99 in Calm   2.0 mph 98 % 0.01 in
00:35 66.7 °F 66.2 °F 29.99 in Calm   2.0 mph 98 % 0.01 in
00:40 66.6 °F 66.0 °F 29.99 in Calm   1.0 mph 98 % 0.00 in
00:45 66.6 °F 66.0 °F 29.99 in Calm   1.0 mph 98 % 0.00 in
00:50 66.6 °F 66.0 °F 29.99 in Calm   1.0 mph 98 % 0.00 in
00:55 66.6 °F 66.0 °F 29.99 in Calm   1.0 mph 98 % 0.00 in
01:00 66.6 °F 66.0 °F 29.98 in Calm   2.0 mph 98 % 0.00 in
01:05 66.4 °F 65.8 °F 29.99 in Calm   2.0 mph 98 % 0.00 in
01:10 66.4 °F 65.8 °F 29.98 in Calm   3.0 mph 98 % 0.00 in
01:15 66.4 °F 65.8 °F 29.99 in Calm   3.0 mph 98 % 0.00 in
01:20 66.4 °F 65.8 °F 29.99 in Calm   3.0 mph 98 % 0.00 in
01:25 66.4 °F 65.8 °F 29.99 in Calm   1.0 mph 98 % 0.00 in
01:30 66.4 °F 65.8 °F 29.98 in Calm   2.0 mph 98 % 0.00 in
01:35 66.4 °F 65.8 °F 29.98 in Calm   2.0 mph 98 % 0.00 in
01:40 66.4 °F 65.8 °F 29.98 in Calm   2.0 mph 98 % 0.00 in
01:45 66.4 °F 65.8 °F 29.98 in Calm   2.0 mph 98 % 0.00 in
01:50 66.4 °F 65.8 °F 29.98 in Calm   1.0 mph 98 % 0.00 in
01:55 66.4 °F 65.8 °F 29.97 in Calm   1.0 mph 98 % 0.00 in
02:00 66.2 °F 65.7 °F 29.97 in Calm   1.0 mph 98 % 0.00 in
02:05 66.2 °F 65.7 °F 29.97 in Calm   1.0 mph 98 % 0.00 in
02:10 66.4 °F 65.8 °F 29.97 in Calm   1.0 mph 98 % 0.00 in
02:15 66.4 °F 65.8 °F 29.97 in Calm   1.0 mph 98 % 0.00 in
02:20 66.4 °F 65.8 °F 29.97 in Calm   1.0 mph 98 % 0.00 in
02:25 66.4 °F 65.8 °F 29.97 in Calm     98 % 0.00 in
02:30 66.4 °F 65.8 °F 29.98 in Calm     98 % 0.00 in
02:35 66.4 °F 65.8 °F 29.98 in Calm   1.0 mph 98 % 0.00 in
02:40 66.4 °F 65.8 °F 29.98 in Calm   1.0 mph 98 % 0.00 in
02:45 66.4 °F 65.8 °F 29.98 in Calm   1.0 mph 98 % 0.00 in
02:50 66.4 °F 65.8 °F 29.98 in Calm   1.0 mph 98 % 0.00 in
02:55 66.4 °F 65.8 °F 29.98 in Calm   1.0 mph 98 % 0.00 in
03:01 66.4 °F 65.8 °F 29.98 in Calm   1.0 mph 98 % 0.00 in
03:06 66.4 °F 65.8 °F 29.97 in Calm   1.0 mph 98 % 0.01 in
03:11 66.4 °F 65.8 °F 29.98 in Calm   1.0 mph 98 % 0.01 in
03:16 66.4 °F 65.8 °F 29.98 in Calm   1.0 mph 98 % 0.01 in
03:21 66.4 °F 65.8 °F 29.97 in Calm     98 % 0.01 in
03:26 66.4 °F 65.8 °F 29.97 in Calm   1.0 mph 98 % 0.01 in
03:31 66.4 °F 65.8 °F 29.97 in Calm   1.0 mph 98 % 0.02 in
03:36 66.2 °F 65.7 °F 29.97 in Calm   1.0 mph 98 % 0.02 in
03:41 66.4 °F 65.8 °F 29.96 in Calm     98 % 0.02 in
03:46 66.4 °F 65.8 °F 29.96 in Calm     98 % 0.02 in
03:51 66.4 °F 65.8 °F 29.96 in Calm   1.0 mph 98 % 0.02 in
03:56 66.4 °F 65.8 °F 29.96 in Calm   1.0 mph 98 % 0.02 in
04:01 66.4 °F 65.8 °F 29.96 in Calm   1.0 mph 98 % 0.02 in
04:06 66.4 °F 65.8 °F 29.97 in Calm   1.0 mph 98 % 0.01 in
04:11 66.6 °F 66.0 °F 29.97 in Calm     98 % 0.02 in
04:16 66.6 °F 66.0 °F 29.96 in Calm   1.0 mph 98 % 0.02 in
04:21 66.6 °F 66.0 °F 29.97 in Calm   1.0 mph 98 % 0.02 in
04:26 66.6 °F 66.0 °F 29.97 in Calm   1.0 mph 98 % 0.02 in
04:31 66.6 °F 66.0 °F 29.97 in Calm   1.0 mph 98 % 0.02 in
04:36 66.6 °F 66.0 °F 29.97 in Calm   1.0 mph 98 % 0.02 in
04:41 66.6 °F 66.0 °F 29.97 in Calm   1.0 mph 98 % 0.02 in
04:46 66.6 °F 66.0 °F 29.97 in Calm   2.0 mph 98 % 0.02 in
04:51 66.6 °F 66.2 °F 29.96 in North 1.0 mph 2.0 mph 99 % 0.02 in
04:56 66.6 °F 66.2 °F 29.96 in Calm   2.0 mph 99 % 0.02 in
04:57 66.6 °F 66.2 °F 29.97 in Calm   2.0 mph 99 % 0.02 in
05:02 66.6 °F 66.2 °F 29.97 in Calm   1.0 mph 99 % 0.03 in
05:07 66.6 °F 66.2 °F 29.97 in Calm   2.0 mph 99 % 0.03 in
05:13 66.6 °F 66.2 °F 29.97 in Calm   2.0 mph 99 % 0.02 in
05:18 66.6 °F 66.2 °F 29.97 in Calm   2.0 mph 99 % 0.02 in
05:23 66.6 °F 66.2 °F 29.97 in NNW 1.0 mph 1.0 mph 99 % 0.03 in
05:28 66.6 °F 66.2 °F 29.97 in Calm   3.0 mph 99 % 0.03 in
05:33 66.6 °F 66.2 °F 29.97 in Calm   3.0 mph 99 % 0.02 in
05:38 66.7 °F 66.4 °F 29.97 in Calm   3.0 mph 99 % 0.02 in
05:43 66.7 °F 66.4 °F 29.97 in Calm   2.0 mph 99 % 0.02 in
05:48 66.7 °F 66.4 °F 29.98 in Calm   2.0 mph 99 % 0.02 in
05:53 66.6 °F 66.2 °F 29.98 in Calm   1.0 mph 99 % 0.02 in
05:58 66.6 °F 66.2 °F 29.98 in Calm   1.0 mph 99 % 0.02 in
06:03 66.6 °F 66.2 °F 29.98 in Calm     99 % 0.01 in
06:08 66.7 °F 66.4 °F 29.98 in Calm     99 % 0.02 in
06:13 66.7 °F 66.4 °F 29.98 in Calm     99 % 0.02 in
06:18 66.7 °F 66.4 °F 29.98 in Calm   1.0 mph 99 % 0.02 in
06:23 66.9 °F 66.6 °F 29.97 in Calm   1.0 mph 99 % 0.01 in
06:28 66.9 °F 66.6 °F 29.97 in Calm   1.0 mph 99 % 0.02 in
06:33 66.9 °F 66.6 °F 29.97 in Calm   1.0 mph 99 % 0.03 in
06:38 66.9 °F 66.6 °F 29.97 in Calm   1.0 mph 99 % 0.03 in
06:43 66.9 °F 66.6 °F 29.97 in Calm   1.0 mph 99 % 0.03 in
06:48 66.9 °F 66.6 °F 29.97 in NE 1.0 mph 1.0 mph 99 % 0.04 in
06:53 66.9 °F 66.6 °F 29.97 in ESE 1.0 mph 1.0 mph 99 % 0.04 in
06:58 66.9 °F 66.6 °F 29.97 in Calm   1.0 mph 99 % 0.04 in
07:03 66.9 °F 66.6 °F 29.97 in Calm   1.0 mph 99 % 0.03 in
07:08 66.9 °F 66.6 °F 29.98 in Calm   1.0 mph 99 % 0.03 in
07:13 66.9 °F 66.6 °F 29.98 in Calm   1.0 mph 99 % 0.03 in
07:18 66.9 °F 66.6 °F 29.98 in Calm   1.0 mph 99 % 0.03 in
07:23 66.9 °F 66.6 °F 29.98 in Calm   1.0 mph 99 % 0.03 in
07:28 67.1 °F 66.7 °F 29.98 in Calm   1.0 mph 99 % 0.02 in
07:33 67.1 °F 66.7 °F 29.99 in Calm   1.0 mph 99 % 0.02 in
07:38 67.1 °F 66.7 °F 29.99 in Calm   1.0 mph 99 % 0.02 in
07:43 67.1 °F 66.7 °F 29.99 in Calm   1.0 mph 99 % 0.02 in
07:48 67.1 °F 66.7 °F 29.99 in Calm   1.0 mph 99 % 0.02 in
07:53 67.1 °F 66.7 °F 29.99 in Calm   1.0 mph 99 % 0.02 in
07:58 67.3 °F 66.9 °F 29.99 in Calm   1.0 mph 99 % 0.03 in
08:03 67.3 °F 66.9 °F 30.00 in Calm   1.0 mph 99 % 0.03 in
08:08 67.3 °F 66.9 °F 30.00 in Calm   1.0 mph 99 % 0.04 in
08:13 67.3 °F 66.9 °F 30.00 in Calm   1.0 mph 99 % 0.04 in
08:18 67.5 °F 67.1 °F 30.00 in Calm   1.0 mph 99 % 0.04 in
08:23 67.5 °F 67.1 °F 30.00 in Calm   1.0 mph 99 % 0.04 in
08:28 67.5 °F 67.1 °F 30.00 in Calm   1.0 mph 99 % 0.05 in
08:33 67.5 °F 67.1 °F 30.01 in Calm   1.0 mph 99 % 0.04 in
08:38 67.5 °F 67.1 °F 30.00 in Calm   1.0 mph 99 % 0.04 in
08:44 67.5 °F 67.1 °F 30.01 in Calm   1.0 mph 99 % 0.05 in
08:49 67.5 °F 67.1 °F 30.01 in Calm   1.0 mph 99 % 0.04 in
08:54 67.6 °F 67.3 °F 30.01 in Calm   1.0 mph 99 % 0.05 in
08:58 67.6 °F 67.3 °F 30.01 in Calm   1.0 mph 99 % 0.04 in
09:04 67.6 °F 67.3 °F 30.01 in Calm   1.0 mph 99 % 0.03 in
09:06 67.6 °F 67.3 °F 30.01 in Calm   1.0 mph 99 % 0.04 in
09:10 67.8 °F 67.5 °F 30.01 in Calm   1.0 mph 99 % 0.04 in
09:16 67.8 °F 67.5 °F 30.01 in Calm   1.0 mph 99 % 0.04 in
09:21 68.0 °F 67.6 °F 30.01 in Calm   2.0 mph 99 % 0.04 in
09:26 68.2 °F 67.8 °F 30.01 in Calm   2.0 mph 99 % 0.04 in
09:31 68.2 °F 67.8 °F 30.01 in Calm   2.0 mph 99 % 0.04 in
09:36 68.2 °F 67.8 °F 30.01 in ENE 1.0 mph 1.0 mph 99 % 0.04 in
09:41 68.2 °F 67.8 °F 30.01 in Calm   1.0 mph 99 % 0.03 in
09:46 68.2 °F 67.8 °F 30.01 in East 1.0 mph 1.0 mph 99 % 0.03 in
09:51 68.2 °F 67.8 °F 30.01 in Calm   1.0 mph 99 % 0.03 in
09:56 68.2 °F 67.8 °F 30.01 in Calm   1.0 mph 99 % 0.03 in
10:01 68.4 °F 68.0 °F 30.01 in Calm   1.0 mph 99 % 0.03 in
10:06 68.4 °F 68.0 °F 30.02 in Calm   1.0 mph 99 % 0.02 in
10:11 68.4 °F 68.0 °F 30.02 in Calm   1.0 mph 99 % 0.02 in
10:16 68.4 °F 68.0 °F 30.02 in Calm   1.0 mph 99 % 0.03 in
10:21 68.4 °F 68.0 °F 30.02 in Calm   3.0 mph 99 % 0.03 in
10:26 68.4 °F 68.0 °F 30.02 in Calm   3.0 mph 99 % 0.03 in
10:31 68.5 °F 68.2 °F 30.02 in Calm   3.0 mph 99 % 0.03 in
10:36 68.5 °F 68.2 °F 30.02 in Calm   2.0 mph 99 % 0.04 in
10:41 68.5 °F 68.2 °F 30.02 in Calm   1.0 mph 99 % 0.04 in
10:46 68.5 °F 68.2 °F 30.02 in Calm   4.0 mph 99 % 0.05 in
10:51 68.7 °F 68.4 °F 30.02 in Calm   4.0 mph 99 % 0.04 in
10:56 68.5 °F 68.2 °F 30.02 in ESE 1.0 mph 4.0 mph 99 % 0.04 in
11:01 68.4 °F 68.0 °F 30.02 in East 1.0 mph 4.0 mph 99 % 0.04 in
11:06 68.4 °F 68.0 °F 30.02 in NE 3.0 mph 4.0 mph 99 % 0.05 in
11:11 68.4 °F 68.0 °F 30.02 in East 3.0 mph 4.0 mph 99 % 0.05 in
11:21 68.2 °F 67.8 °F 30.02 in ESE 1.0 mph 9.0 mph 99 % 0.05 in
11:26 68.2 °F 67.8 °F 30.02 in East 3.0 mph 9.0 mph 99 % 0.04 in
11:31 68.2 °F 67.8 °F 30.02 in Calm   5.0 mph 99 % 0.04 in
11:36 68.4 °F 68.0 °F 30.02 in ESE 1.0 mph 5.0 mph 99 % 0.03 in
11:41 68.4 °F 68.0 °F 30.02 in Calm   5.0 mph 99 % 0.04 in
11:46 68.4 °F 68.0 °F 30.02 in ESE 2.0 mph 4.0 mph 99 % 0.03 in
11:51 68.5 °F 68.2 °F 30.01 in NW 1.0 mph 4.0 mph 99 % 0.03 in
11:56 68.5 °F 68.0 °F 30.01 in SE 1.0 mph 5.0 mph 98 % 0.03 in
12:01 68.7 °F 68.4 °F 30.01 in ESE 3.0 mph 5.0 mph 99 % 0.03 in
12:06 68.7 °F 68.2 °F 30.01 in East 2.0 mph 6.0 mph 98 % 0.02 in
12:11 69.1 °F 68.7 °F 30.02 in ESE 2.0 mph 6.0 mph 99 % 0.02 in
12:16 69.4 °F 69.1 °F 30.02 in SE 2.0 mph 6.0 mph 99 % 0.02 in
12:21 70.2 °F 69.8 °F 30.02 in SE 1.0 mph 6.0 mph 99 % 0.01 in
12:23 70.2 °F 69.8 °F 30.01 in Calm   6.0 mph 99 % 0.01 in
12:28 70.3 °F 69.8 °F 30.02 in East 4.0 mph 8.0 mph 98 % 0.01 in
12:33 70.3 °F 69.4 °F 30.01 in SE 1.0 mph 8.0 mph 97 % 0.01 in
12:38 70.9 °F 70.0 °F 30.01 in ESE 3.0 mph 8.0 mph 97 % 0.01 in
12:43 70.9 °F 69.6 °F 30.01 in East 1.0 mph 7.0 mph 96 % 0.00 in
12:48 71.4 °F 70.2 °F 30.01 in SSE 4.0 mph 7.0 mph 96 % 0.00 in
12:53 72.1 °F 70.7 °F 30.01 in East 4.0 mph 6.0 mph 95 % 0.00 in
12:58 72.7 °F 70.5 °F 30.01 in SE 5.0 mph 7.0 mph 93 % 0.00 in
13:03 73.2 °F 70.5 °F 30.01 in East 4.0 mph 9.0 mph 91 % 0.00 in
13:08 73.8 °F 70.7 °F 30.01 in SE 1.0 mph 9.0 mph 90 % 0.00 in
13:13 73.9 °F 69.8 °F 30.01 in SSE 6.0 mph 9.0 mph 87 % 0.00 in
13:18 73.8 °F 68.9 °F 30.01 in ESE 2.0 mph 11.0 mph 85 % 0.00 in
13:23 73.9 °F 69.4 °F 30.01 in SE 3.0 mph 11.0 mph 86 % 0.00 in
13:28 73.9 °F 69.1 °F 30.01 in SSE 3.0 mph 11.0 mph 85 % 0.00 in
13:33 73.9 °F 69.4 °F 30.01 in SE 2.0 mph 9.0 mph 86 % 0.00 in
13:39 74.1 °F 69.6 °F 30.01 in Calm   9.0 mph 86 % 0.00 in
13:44 74.1 °F 69.3 °F 30.01 in SE 4.0 mph 8.0 mph 85 % 0.00 in
13:49 73.9 °F 69.1 °F 30.01 in SE 4.0 mph 7.0 mph 85 % 0.00 in
13:54 73.9 °F 69.1 °F 30.01 in East 4.0 mph 9.0 mph 85 % 0.00 in
13:55 73.9 °F 69.1 °F 30.01 in ESE 3.0 mph 9.0 mph 85 % 0.00 in
14:00 74.1 °F 69.3 °F 30.01 in SSE 3.0 mph 9.0 mph 85 % 0.00 in
14:05 74.1 °F 68.9 °F 30.01 in ESE 3.0 mph 7.0 mph 84 % 0.00 in
14:10 74.5 °F 69.3 °F 30.01 in SE 5.0 mph 7.0 mph 84 % 0.00 in
14:15 74.7 °F 69.1 °F 30.01 in SSE 6.0 mph 7.0 mph 83 % 0.00 in
14:20 74.7 °F 69.1 °F 30.01 in SE 2.0 mph 7.0 mph 83 % 0.00 in
14:25 74.7 °F 69.1 °F 30.01 in SSW 5.0 mph 7.0 mph 83 % 0.00 in
14:30 74.8 °F 69.3 °F 30.01 in SE 5.0 mph 7.0 mph 83 % 0.00 in
14:35 74.8 °F 68.5 °F 30.01 in SE 4.0 mph 7.0 mph 81 % 0.00 in
14:40 75.0 °F 68.4 °F 30.01 in East 4.0 mph 7.0 mph 80 % 0.00 in
14:45 75.4 °F 68.7 °F 30.01 in ESE 3.0 mph 7.0 mph 80 % 0.00 in
14:50 75.7 °F 69.1 °F 30.01 in Calm   7.0 mph 80 % 0.00 in
14:55 75.9 °F 68.9 °F 30.00 in SE 5.0 mph 7.0 mph 79 % 0.00 in
15:00 76.1 °F 69.1 °F 30.00 in ESE 3.0 mph 7.0 mph 79 % 0.00 in
15:05 76.3 °F 68.2 °F 30.00 in SE 8.0 mph 8.0 mph 76 % 0.00 in
15:15 76.6 °F 68.5 °F 30.00 in South 3.0 mph 9.0 mph 76 % 0.00 in
15:20 76.8 °F 68.7 °F 30.00 in ESE 5.0 mph 9.0 mph 76 % 0.00 in
15:25 76.8 °F 69.1 °F 30.00 in ESE 1.0 mph 7.0 mph 77 % 0.00 in
15:30 76.8 °F 69.1 °F 30.00 in SE 3.0 mph 7.0 mph 77 % 0.00 in
15:35 76.6 °F 67.6 °F 30.00 in SE 5.0 mph 7.0 mph 74 % 0.00 in
15:40 76.5 °F 68.4 °F 29.99 in SE 4.0 mph 8.0 mph 76 % 0.00 in
15:45 76.5 °F 67.6 °F 29.99 in SE 2.0 mph 9.0 mph 74 % 0.00 in
15:50 76.5 °F 67.6 °F 29.99 in East 3.0 mph 9.0 mph 74 % 0.00 in
15:55 76.6 °F 67.6 °F 29.99 in SSE 4.0 mph 9.0 mph 74 % 0.00 in
16:00 77.0 °F 67.6 °F 29.99 in SSE 5.0 mph 7.0 mph 73 % 0.00 in
16:05 77.2 °F 67.5 °F 29.99 in Calm   6.0 mph 72 % 0.00 in
16:10 77.4 °F 67.6 °F 29.99 in East 3.0 mph 6.0 mph 72 % 0.00 in
16:15 77.4 °F 67.6 °F 29.99 in ESE 3.0 mph 6.0 mph 72 % 0.00 in
16:21 77.7 °F 68.4 °F 29.99 in SE 2.0 mph 6.0 mph 73 % 0.00 in
16:26 78.3 °F 68.9 °F 29.99 in SE 2.0 mph 7.0 mph 73 % 0.00 in
16:27 78.3 °F 68.5 °F 29.99 in SE 3.0 mph 7.0 mph 72 % 0.00 in
16:32 77.7 °F 67.6 °F 29.99 in SE 1.0 mph 7.0 mph 71 % 0.00 in
16:37 77.5 °F 67.8 °F 29.99 in NE 2.0 mph 7.0 mph 72 % 0.00 in
16:42 77.9 °F 68.5 °F 29.98 in SE 5.0 mph 6.0 mph 73 % 0.00 in
16:47 78.3 °F 68.5 °F 29.98 in ENE 3.0 mph 8.0 mph 72 % 0.00 in
16:53 78.3 °F 68.9 °F 29.98 in NNW 2.0 mph 9.0 mph 73 % 0.00 in
16:58 78.4 °F 69.1 °F 29.98 in ESE 2.0 mph 9.0 mph 73 % 0.00 in
17:08 78.1 °F 68.4 °F 29.98 in ESE 2.0 mph 6.0 mph 72 % 0.00 in
17:13 77.5 °F 68.2 °F 29.98 in ENE 2.0 mph 8.0 mph 73 % 0.00 in
17:18 77.2 °F 68.2 °F 29.98 in SE 4.0 mph 8.0 mph 74 % 0.00 in
17:23 77.0 °F 67.6 °F 29.98 in East 2.0 mph 8.0 mph 73 % 0.00 in
17:28 76.6 °F 67.6 °F 29.98 in SE 4.0 mph 9.0 mph 74 % 0.00 in
17:33 76.6 °F 67.6 °F 29.98 in East 3.0 mph 10.0 mph 74 % 0.00 in
17:38 76.8 °F 67.8 °F 29.98 in ESE 7.0 mph 10.0 mph 74 % 0.00 in
17:43 77.4 °F 68.0 °F 29.98 in East 3.0 mph 10.0 mph 73 % 0.00 in
17:48 77.5 °F 67.8 °F 29.98 in SE 6.0 mph 12.0 mph 72 % 0.00 in
17:54 77.9 °F 69.3 °F 29.98 in SE 2.0 mph 12.0 mph 75 % 0.00 in
17:59 78.4 °F 69.8 °F 29.98 in ENE 4.0 mph 12.0 mph 75 % 0.00 in
18:04 78.3 °F 69.6 °F 29.98 in SE 4.0 mph 12.0 mph 75 % 0.00 in
18:09 77.5 °F 68.9 °F 29.98 in ESE 3.0 mph 9.0 mph 75 % 0.00 in
18:14 77.2 °F 68.7 °F 29.98 in ESE 6.0 mph 10.0 mph 75 % 0.00 in
18:19 76.6 °F 68.9 °F 29.98 in SE 1.0 mph 11.0 mph 77 % 0.00 in
18:24 76.5 °F 69.1 °F 29.98 in East 4.0 mph 11.0 mph 78 % 0.00 in
18:29 76.3 °F 68.9 °F 29.98 in SE 3.0 mph 11.0 mph 78 % 0.00 in
18:34 75.9 °F 69.6 °F 29.98 in East 3.0 mph 10.0 mph 81 % 0.00 in
18:39 75.0 °F 69.8 °F 29.98 in Calm   10.0 mph 84 % 0.00 in
18:44 74.5 °F 70.0 °F 29.98 in ENE 1.0 mph 8.0 mph 86 % 0.00 in
18:49 74.1 °F 69.6 °F 29.98 in ENE 1.0 mph 8.0 mph 86 % 0.00 in
18:54 73.9 °F 69.8 °F 29.98 in Calm   7.0 mph 87 % 0.00 in
18:59 73.9 °F 69.8 °F 29.98 in East 2.0 mph 5.0 mph 87 % 0.00 in
19:04 73.9 °F 69.8 °F 29.98 in East 4.0 mph 5.0 mph 87 % 0.00 in
19:09 73.9 °F 69.8 °F 29.98 in ESE 1.0 mph 5.0 mph 87 % 0.00 in
19:14 73.8 °F 69.6 °F 29.99 in SSE 3.0 mph 5.0 mph 87 % 0.00 in
19:19 73.6 °F 69.1 °F 29.99 in SSE 1.0 mph 7.0 mph 86 % 0.00 in
19:24 73.6 °F 69.1 °F 29.99 in East 1.0 mph 9.0 mph 86 % 0.00 in
19:29 73.2 °F 68.4 °F 29.99 in SE 1.0 mph 9.0 mph 85 % 0.00 in
19:34 73.2 °F 68.4 °F 29.99 in ENE 3.0 mph 9.0 mph 85 % 0.00 in
19:39 73.0 °F 68.0 °F 29.99 in ESE 3.0 mph 8.0 mph 84 % 0.00 in
19:44 72.9 °F 67.8 °F 29.99 in East 2.0 mph 10.0 mph 84 % 0.00 in
19:49 72.9 °F 68.0 °F 29.99 in ESE 7.0 mph 10.0 mph 85 % 0.00 in
19:54 72.7 °F 67.8 °F 29.99 in SE 2.0 mph 10.0 mph 85 % 0.00 in
19:59 72.5 °F 67.8 °F 29.99 in ESE 4.0 mph 8.0 mph 85 % 0.00 in
20:04 72.3 °F 67.8 °F 29.99 in SE 3.0 mph 8.0 mph 86 % 0.00 in
20:09 72.3 °F 68.2 °F 29.99 in SSE 1.0 mph 8.0 mph 87 % 0.00 in
20:14 72.1 °F 68.0 °F 29.99 in SE 3.0 mph 8.0 mph 87 % 0.00 in
20:19 72.1 °F 68.4 °F 30.00 in ESE 3.0 mph 7.0 mph 88 % 0.00 in
20:24 72.0 °F 68.2 °F 30.00 in Calm   7.0 mph 88 % 0.00 in
20:29 72.0 °F 68.2 °F 30.00 in East 3.0 mph 7.0 mph 88 % 0.00 in
20:34 71.8 °F 68.4 °F 30.00 in ESE 4.0 mph 6.0 mph 89 % 0.00 in
20:39 71.6 °F 68.2 °F 30.00 in ESE 5.0 mph 9.0 mph 89 % 0.00 in
20:44 71.6 °F 68.2 °F 30.00 in East 4.0 mph 9.0 mph 89 % 0.00 in
20:49 71.4 °F 68.0 °F 30.00 in SSE 4.0 mph 9.0 mph 89 % 0.00 in
20:54 71.4 °F 68.0 °F 30.01 in East 4.0 mph 9.0 mph 89 % 0.00 in
20:59 71.2 °F 68.2 °F 30.01 in SE 1.0 mph 8.0 mph 90 % 0.00 in
21:04 71.2 °F 68.2 °F 30.01 in East 2.0 mph 8.0 mph 90 % 0.00 in
21:09 71.1 °F 68.0 °F 30.01 in East 2.0 mph 6.0 mph 90 % 0.00 in
21:14 71.1 °F 68.0 °F 30.01 in Calm   5.0 mph 90 % 0.00 in
21:19 71.1 °F 68.4 °F 30.01 in East 2.0 mph 5.0 mph 91 % 0.00 in
21:24 70.9 °F 68.2 °F 30.01 in NE 2.0 mph 5.0 mph 91 % 0.00 in
21:29 70.7 °F 68.0 °F 30.01 in Calm   5.0 mph 91 % 0.00 in
21:34 70.5 °F 67.8 °F 30.02 in SE 1.0 mph 4.0 mph 91 % 0.00 in
21:39 70.5 °F 68.0 °F 30.02 in East 1.0 mph 4.0 mph 92 % 0.00 in
21:44 70.3 °F 67.8 °F 30.02 in Calm   4.0 mph 92 % 0.00 in
21:49 70.3 °F 67.8 °F 30.02 in Calm   5.0 mph 92 % 0.00 in
21:54 70.2 °F 68.0 °F 30.02 in NE 3.0 mph 5.0 mph 93 % 0.00 in
21:57 70.2 °F 68.0 °F 30.02 in SE 1.0 mph 5.0 mph 93 % 0.00 in
22:02 70.0 °F 67.8 °F 30.02 in Calm   4.0 mph 93 % 0.00 in
22:07 70.0 °F 67.8 °F 30.03 in Calm   3.0 mph 93 % 0.00 in
22:12 69.8 °F 67.6 °F 30.02 in Calm   3.0 mph 93 % 0.00 in
22:17 69.6 °F 67.5 °F 30.03 in Calm   3.0 mph 93 % 0.00 in
22:22 69.4 °F 67.6 °F 30.03 in Calm   1.0 mph 94 % 0.00 in
22:27 69.4 °F 67.6 °F 30.03 in Calm   1.0 mph 94 % 0.00 in
22:37 69.3 °F 67.5 °F 30.03 in Calm   1.0 mph 94 % 0.00 in
22:42 69.1 °F 67.3 °F 30.03 in Calm   1.0 mph 94 % 0.00 in
22:47 69.1 °F 67.6 °F 30.03 in Calm   1.0 mph 95 % 0.00 in
22:52 69.1 °F 67.6 °F 30.03 in Calm   1.0 mph 95 % 0.00 in
22:57 69.1 °F 67.6 °F 30.04 in Calm   1.0 mph 95 % 0.00 in
23:02 68.9 °F 67.5 °F 30.04 in Calm   1.0 mph 95 % 0.00 in
23:07 68.9 °F 67.5 °F 30.03 in Calm   1.0 mph 95 % 0.00 in
23:12 68.7 °F 67.3 °F 30.03 in Calm   2.0 mph 95 % 0.00 in
23:22 68.7 °F 67.3 °F 30.03 in Calm   2.0 mph 95 % 0.00 in
23:27 68.5 °F 67.3 °F 30.03 in Calm   1.0 mph 96 % 0.00 in
23:32 68.5 °F 67.3 °F 30.03 in Calm   1.0 mph 96 % 0.00 in
23:37 68.4 °F 67.1 °F 30.03 in Calm   1.0 mph 96 % 0.00 in
23:42 68.4 °F 67.1 °F 30.03 in Calm   1.0 mph 96 % 0.00 in
23:47 68.4 °F 67.1 °F 30.03 in Calm   1.0 mph 96 % 0.00 in
23:52 68.2 °F 66.9 °F 30.03 in Calm   1.0 mph 96 % 0.00 in
23:57 68.0 °F 66.7 °F 30.02 in Calm   1.0 mph 96 % 0.00 in
Spring, Texas: Villages of Bridgestone
Compliments of Weather Underground - 2.75 mb

Script developed by  Jim McMurry - jmcmurry@mwt.net Adapted for the template by  Wim van der Kuil - Leuven-Template.eu

You find our weather info also at:

UK Metoffice

WeatherCloud

Weather Underground

Mid-South Weather Network

AWEKAS

Citizen Weather Observer Program (CWOP)

HAMweather, WeatherForYou, PWS Weather

Equipment we use:

Weather-station
Davis Vantage Vue

Weather-program
Meteohub

Weather-server
Debian 7.9 x86 (Guest)

Provider
DreamHost

Davis Vantage Vue

Meteohub

Debian 7.9 x86 (Guest)

DreamHost